Station: Hohenfels, ICAO: ETIH, Synop: Synop: 10775,
Koordinaten: 4913'00''N 01150'00''E, Hoehe: 442m, Entfernung: 33.86km
2017/12/12 07:56
ETIH 120756Z AUTO 28018G26KT 9999 -RA OVC026 02/00 A2965 RMK AO2 PK WND 26026/45 RAB49 OVC V BKN SLPNO P0000 T00201003 $


Station: HOHENFELS (USAF), ICAO: EDIH, Synop: Synop: 10775,
Koordinaten: 49 13 N 011 49 E, Hoehe: 442m, Entfernung: 34.63km


Station: GAERMERSDORF, ICAO: EDZH, Synop: ,
Koordinaten: 49 25 N 011 54 E, Hoehe: 419m, Entfernung: 51.28km


Station: Ingolstadt, ICAO: ETSI, Synop: Synop: 10860,
Koordinaten: 4843'00''N 01132'00''E, Hoehe: 367m, Entfernung: 52.18km
2017/12/12 08:20
ETSI 120820Z 30014KT 9999 BKN030 03/M03 Q1006 BLU BLU+ TEMPO BLU


Station: Kuemmersruck, ICAO: ETGK, Synop: Synop: 10771,
Koordinaten: 4926'00''N 01154'00''E, Hoehe: 419m, Entfernung: 53.04km


Station: Neuburg / Donau, ICAO: ETSN, Synop: Synop: 10853,
Koordinaten: 4843'00''N 01113'00''E, Hoehe: 380m, Entfernung: 72.54km
2017/12/12 08:20
ETSN 120820Z 26006KT 9999 BKN034 03/M03 Q1006 BLU BLU


mehr Wetter
WetterInfo - adds.pl 2.6.003 DL3EL © 2004-2017 [154895]